Time;durP1;ratioP1;P1;durP2;ratioP2;P2;SDS_P1;SDS_P2;PMS_P1;PMS_P2;Temp;Humidity;BMP_temperature;BMP_pressure;BME280_temperature;BME280_humidity;BME280_pressure;Samples;Min_cycle;Max_cycle;Signal;HPM_P1;HPM_P2
2021/07/25 00:02:23;;;;;;;21.92;15.88;;;17.50;99.90;;;;;;5030199;28;20018;-80
2021/07/25 00:04:49;;;;;;;22.30;16.33;;;17.50;99.90;;;;;;5031377;28;20059;-80
2021/07/25 00:07:15;;;;;;;26.08;17.33;;;17.40;99.90;;;;;;5029172;28;20021;-80
2021/07/25 00:09:40;;;;;;;21.60;16.48;;;17.40;99.90;;;;;;5029179;28;20077;-80
2021/07/25 00:12:06;;;;;;;24.08;17.73;;;17.40;99.90;;;;;;5030180;28;20053;-80
2021/07/25 00:14:32;;;;;;;23.35;18.40;;;17.50;99.90;;;;;;5031289;28;20114;-81
2021/07/25 00:16:58;;;;;;;22.10;17.20;;;17.50;99.90;;;;;;5050061;28;20035;-80
2021/07/25 00:19:23;;;;;;;24.88;17.33;;;17.40;99.90;;;;;;5048851;28;20009;-80
2021/07/25 00:21:49;;;;;;;22.83;16.73;;;17.40;99.90;;;;;;5050137;28;20104;-80
2021/07/25 00:24:18;;;;;;;21.08;15.85;;;17.40;99.90;;;;;;5053591;28;20393;-81
2021/07/25 00:26:48;;;;;;;21.27;15.77;;;17.30;99.90;;;;;;5048179;27;20077;-81
2021/07/25 00:29:15;;;;;;;22.25;15.40;;;17.30;99.90;;;;;;5050105;28;20089;-81
2021/07/25 00:31:41;;;;;;;20.92;15.98;;;17.30;99.90;;;;;;5050821;28;20033;-80
2021/07/25 00:34:06;;;;;;;21.10;14.95;;;17.30;99.90;;;;;;5050960;28;20036;-80
2021/07/25 00:36:32;;;;;;;20.63;14.70;;;17.20;99.90;;;;;;5049580;27;20032;-80
2021/07/25 00:38:57;;;;;;;20.08;15.57;;;17.20;99.90;;;;;;5050850;28;20021;-80
2021/07/25 00:41:23;;;;;;;44.13;26.08;;;17.20;99.90;;;;;;5049528;28;20032;-80
2021/07/25 00:43:49;;;;;;;35.70;23.05;;;17.20;99.90;;;;;;5050723;28;20021;-80
2021/07/25 00:46:16;;;;;;;26.67;18.38;;;17.20;99.90;;;;;;5049070;28;20042;-80
2021/07/25 00:48:44;;;;;;;22.17;17.27;;;17.20;99.90;;;;;;5050645;28;20029;-81
2021/07/25 00:51:10;;;;;;;22.08;16.38;;;17.20;99.90;;;;;;5050631;28;20477;-81
2021/07/25 00:53:39;;;;;;;20.50;17.20;;;17.20;99.90;;;;;;5050521;28;20057;-81
2021/07/25 00:56:08;;;;;;;25.15;16.15;;;17.20;99.90;;;;;;5049318;28;20048;-81
2021/07/25 00:58:36;;;;;;;22.33;16.70;;;17.20;99.90;;;;;;5049484;28;20475;-81
2021/07/25 01:01:02;;;;;;;23.73;16.17;;;17.20;99.90;;;;;;5049235;28;20031;-81
2021/07/25 01:03:48;;;;;;;21.67;15.85;;;17.20;99.90;;;;;;5050468;28;20021;-80
2021/07/25 01:06:34;;;;;;;23.88;14.98;;;17.20;99.90;;;;;;5049129;28;20032;-80
2021/07/25 01:09:08;;;;;;;18.15;15.13;;;17.30;99.90;;;;;;5050410;28;20025;-80
2021/07/25 01:11:49;;;;;;;17.15;14.10;;;17.30;99.90;;;;;;5049014;28;20048;-80
2021/07/25 01:14:27;;;;;;;14.80;13.23;;;17.30;99.90;;;;;;5030308;28;20041;-80
2021/07/25 01:16:53;;;;;;;17.02;13.98;;;17.20;99.90;;;;;;5029101;28;20018;-80
2021/07/25 01:19:18;;;;;;;16.65;13.00;;;17.20;99.90;;;;;;5029135;28;20110;-80
2021/07/25 01:21:44;;;;;;;17.48;14.50;;;17.20;99.90;;;;;;5028991;28;20474;-80
2021/07/25 01:24:10;;;;;;;19.48;15.35;;;17.20;99.90;;;;;;5029041;28;20017;-80
2021/07/25 01:26:39;;;;;;;19.83;15.13;;;17.20;99.90;;;;;;5030118;28;20075;-80
2021/07/25 01:29:06;;;;;;;21.30;14.70;;;17.20;99.90;;;;;;5030245;28;20029;-80
2021/07/25 01:31:43;;;;;;;20.92;14.43;;;17.20;99.90;;;;;;5031205;28;20061;-80
2021/07/25 01:34:10;;;;;;;20.70;14.23;;;17.20;99.90;;;;;;5028975;28;20025;-80
2021/07/25 01:36:39;;;;;;;17.67;14.52;;;17.10;99.90;;;;;;5028773;28;20132;-80
2021/07/25 01:39:05;;;;;;;18.70;14.50;;;17.10;99.90;;;;;;5030110;28;20033;-80
2021/07/25 01:41:31;;;;;;;18.30;14.10;;;17.10;99.90;;;;;;5030071;28;20029;-79
2021/07/25 01:43:56;;;;;;;19.65;15.60;;;17.10;99.90;;;;;;5028727;28;20048;-80
2021/07/25 01:46:22;;;;;;;18.83;13.13;;;17.10;99.90;;;;;;5028642;28;20471;-80
2021/07/25 01:48:48;;;;;;;16.52;13.82;;;17.00;99.90;;;;;;5028693;28;20028;-80
2021/07/25 01:51:14;;;;;;;19.58;15.18;;;17.10;99.90;;;;;;5028478;28;20553;-81
2021/07/25 01:53:40;;;;;;;17.88;13.60;;;17.20;99.90;;;;;;5029800;28;20018;-81
2021/07/25 01:56:06;;;;;;;20.02;14.73;;;17.10;99.90;;;;;;5028644;28;20131;-80
2021/07/25 01:58:32;;;;;;;21.92;15.38;;;17.20;99.90;;;;;;5030528;28;20021;-80
2021/07/25 02:00:58;;;;;;;21.70;16.88;;;17.20;99.90;;;;;;5055427;28;20025;-81
2021/07/25 02:03:25;;;;;;;19.98;16.25;;;17.20;99.90;;;;;;5056766;28;20116;-80
2021/07/25 02:05:51;;;;;;;22.42;14.93;;;17.20;99.90;;;;;;5032054;28;20028;-80
2021/07/25 02:08:17;;;;;;;18.05;14.50;;;17.20;99.90;;;;;;5031934;28;20432;-79
2021/07/25 02:10:47;;;;;;;17.05;13.95;;;17.10;99.90;;;;;;5031901;28;20025;-79
2021/07/25 02:13:14;;;;;;;16.67;13.60;;;17.20;99.90;;;;;;5031935;28;20069;-79
2021/07/25 02:15:40;;;;;;;22.23;16.05;;;17.20;99.90;;;;;;5031902;28;20474;-79
2021/07/25 02:18:06;;;;;;;20.35;14.40;;;17.30;99.90;;;;;;5031865;28;20116;-80
2021/07/25 02:20:32;;;;;;;20.35;14.90;;;17.20;99.90;;;;;;5031852;28;20163;-80
2021/07/25 02:22:58;;;;;;;18.77;15.05;;;17.30;99.90;;;;;;5032983;28;20027;-80
2021/07/25 02:25:23;;;;;;;19.80;15.00;;;17.30;99.90;;;;;;5033163;28;20025;-81
2021/07/25 02:27:49;;;;;;;17.67;14.70;;;17.20;99.90;;;;;;5032909;28;20028;-80
2021/07/25 02:30:15;;;;;;;18.20;15.50;;;17.20;99.90;;;;;;5038693;28;20385;-80
2021/07/25 02:32:40;;;;;;;22.48;15.75;;;17.20;99.90;;;;;;5052640;28;20154;-80
2021/07/25 02:35:06;;;;;;;19.35;14.90;;;17.20;99.90;;;;;;5051589;27;20362;-80
2021/07/25 02:37:32;;;;;;;20.23;15.75;;;17.20;99.90;;;;;;5051391;28;20097;-80
2021/07/25 02:39:58;;;;;;;19.98;15.23;;;17.20;99.90;;;;;;5051444;28;20055;-79
2021/07/25 02:42:23;;;;;;;16.73;14.73;;;17.20;99.90;;;;;;5051362;28;20422;-80
2021/07/25 02:44:49;;;;;;;18.50;14.75;;;17.20;99.90;;;;;;5051332;28;20021;-80
2021/07/25 02:47:15;;;;;;;17.13;15.20;;;17.10;99.90;;;;;;5051263;27;20370;-80
2021/07/25 02:49:40;;;;;;;17.40;15.48;;;17.00;99.90;;;;;;5051302;27;20048;-79
2021/07/25 02:52:06;;;;;;;21.17;17.63;;;16.90;99.90;;;;;;5051177;28;20482;-79
2021/07/25 02:54:32;;;;;;;19.38;16.13;;;16.90;99.90;;;;;;5051285;27;20021;-79
2021/07/25 02:56:57;;;;;;;19.85;16.45;;;16.80;99.90;;;;;;5052441;28;20036;-80
2021/07/25 02:59:23;;;;;;;20.55;16.38;;;16.80;99.90;;;;;;5052143;28;20427;-80
2021/07/25 03:01:50;;;;;;;20.55;15.98;;;16.80;99.90;;;;;;5031181;28;20090;-79
2021/07/25 03:04:16;;;;;;;22.23;16.08;;;16.80;99.90;;;;;;5031156;28;20029;-79
2021/07/25 03:06:42;;;;;;;19.13;15.02;;;16.90;99.90;;;;;;5032298;28;20029;-80
2021/07/25 03:09:08;;;;;;;20.83;16.60;;;16.90;99.90;;;;;;5031785;28;20092;-80
2021/07/25 03:11:34;;;;;;;20.20;16.42;;;16.90;99.90;;;;;;5032205;28;20044;-80
2021/07/25 03:13:59;;;;;;;19.38;14.80;;;17.00;99.90;;;;;;5032244;28;20022;-80
2021/07/25 03:16:25;;;;;;;18.52;15.77;;;17.00;99.90;;;;;;5031000;28;20030;-80
2021/07/25 03:18:51;;;;;;;20.45;16.00;;;17.00;99.90;;;;;;5030902;28;20022;-80
2021/07/25 03:21:16;;;;;;;20.92;16.20;;;17.10;99.90;;;;;;5030852;28;20022;-79
2021/07/25 03:23:42;;;;;;;20.85;16.60;;;17.10;99.90;;;;;;5032111;28;20028;-80
2021/07/25 03:26:07;;;;;;;19.65;15.75;;;17.20;99.90;;;;;;5030628;28;20438;-80
2021/07/25 03:28:33;;;;;;;18.17;14.68;;;17.20;99.90;;;;;;5045698;28;20358;-80
2021/07/25 03:30:59;;;;;;;20.80;15.05;;;17.20;99.90;;;;;;5070588;28;20157;-80
2021/07/25 03:33:24;;;;;;;17.38;14.93;;;17.30;99.90;;;;;;5070627;28;20123;-80
2021/07/25 03:35:50;;;;;;;18.13;13.65;;;17.40;99.90;;;;;;5052385;27;20036;-80
2021/07/25 03:38:17;;;;;;;17.65;13.95;;;17.50;99.90;;;;;;5031759;28;20041;-80
2021/07/25 03:40:44;;;;;;;16.55;12.73;;;17.60;99.90;;;;;;5030584;28;20021;-80
2021/07/25 03:43:10;;;;;;;15.98;13.73;;;17.80;99.90;;;;;;5030522;28;20040;-80
2021/07/25 03:45:40;;;;;;;17.15;14.38;;;17.90;99.90;;;;;;5030505;28;20116;-80
2021/07/25 03:48:06;;;;;;;27.02;13.88;;;18.00;99.90;;;;;;5030423;28;20042;-81
2021/07/25 03:50:31;;;;;;;21.35;14.60;;;18.00;99.90;;;;;;5031748;28;20134;-81
2021/07/25 03:52:58;;;;;;;19.10;13.93;;;18.00;99.90;;;;;;5032497;28;20082;-81
2021/07/25 03:55:24;;;;;;;15.85;14.05;;;18.10;99.90;;;;;;5030456;28;20025;-81
2021/07/25 03:57:52;;;;;;;16.73;14.02;;;18.10;99.90;;;;;;5030243;28;20432;-81
2021/07/25 04:00:17;;;;;;;16.75;13.48;;;18.20;99.90;;;;;;5030279;28;20394;-80
2021/07/25 04:02:43;;;;;;;18.15;14.18;;;18.20;99.90;;;;;;5031406;28;20017;-80
2021/07/25 04:05:09;;;;;;;15.60;13.57;;;18.20;99.90;;;;;;5030264;28;20063;-80
2021/07/25 04:07:35;;;;;;;17.85;13.95;;;18.30;99.90;;;;;;5030159;28;20014;-81
2021/07/25 04:10:02;;;;;;;19.73;14.13;;;18.30;99.90;;;;;;5031413;28;20036;-80
2021/07/25 04:12:28;;;;;;;18.30;13.10;;;18.30;99.90;;;;;;5030080;28;20076;-80
2021/07/25 04:14:53;;;;;;;17.63;13.50;;;18.40;99.90;;;;;;5031320;28;20034;-81
2021/07/25 04:17:19;;;;;;;16.67;12.75;;;18.40;99.90;;;;;;5031292;28;20070;-81
2021/07/25 04:19:44;;;;;;;15.40;12.77;;;18.50;99.90;;;;;;5031230;28;20021;-81
2021/07/25 04:22:10;;;;;;;16.75;12.23;;;18.50;99.90;;;;;;5028638;28;20030;-80
2021/07/25 04:24:36;;;;;;;15.50;13.00;;;18.60;99.90;;;;;;5062538;28;20033;-81
2021/07/25 04:27:02;;;;;;;15.07;12.23;;;18.60;99.90;;;;;;5070920;28;20028;-81
2021/07/25 04:29:27;;;;;;;19.88;11.98;;;18.70;99.90;;;;;;5071129;28;20096;-81
2021/07/25 04:31:54;;;;;;;18.38;12.27;;;18.70;99.90;;;;;;5041352;28;20037;-80
2021/07/25 04:34:20;;;;;;;19.20;13.00;;;18.70;99.90;;;;;;5029787;28;20063;-80
2021/07/25 04:36:46;;;;;;;15.57;13.32;;;18.70;99.90;;;;;;5029642;28;20037;-80
2021/07/25 04:39:12;;;;;;;14.68;11.98;;;18.70;99.90;;;;;;5029725;28;20013;-80
2021/07/25 04:41:42;;;;;;;16.27;12.80;;;18.80;99.90;;;;;;5030846;28;20022;-81
2021/07/25 04:44:19;;;;;;;15.13;11.25;;;18.80;99.90;;;;;;5029636;28;20075;-80
2021/07/25 04:46:51;;;;;;;13.43;11.20;;;18.90;99.90;;;;;;5029525;28;20026;-81
2021/07/25 04:49:18;;;;;;;13.27;10.80;;;18.90;99.90;;;;;;5030834;28;20112;-80
2021/07/25 04:51:46;;;;;;;13.43;11.27;;;19.00;99.90;;;;;;5029431;28;20033;-80
2021/07/25 04:54:17;;;;;;;14.43;10.48;;;19.00;99.90;;;;;;5046058;28;20025;-80
2021/07/25 04:56:57;;;;;;;15.82;11.02;;;19.10;99.90;;;;;;5050547;28;20029;-80
2021/07/25 04:59:46;;;;;;;14.63;11.88;;;19.20;99.30;;;;;;5050601;28;20024;-81
2021/07/25 05:02:14;;;;;;;13.85;10.98;;;19.30;98.60;;;;;;5050359;28;20017;-80
2021/07/25 05:04:40;;;;;;;13.00;10.93;;;19.30;98.90;;;;;;5046554;27;20025;-80
2021/07/25 05:07:10;;;;;;;14.27;10.32;;;19.30;98.20;;;;;;5067989;28;20044;-80
2021/07/25 05:09:36;;;;;;;16.10;10.93;;;19.40;98.20;;;;;;5070313;28;20025;-81
2021/07/25 05:12:16;;;;;;;13.15;11.73;;;19.40;98.50;;;;;;5068965;28;20036;-81
2021/07/25 05:15:11;;;;;;;13.32;11.90;;;19.40;99.40;;;;;;5052696;27;20082;-80
2021/07/25 05:17:39;;;;;;;14.88;11.70;;;19.40;99.90;;;;;;5050285;28;20029;-80
2021/07/25 05:20:08;;;;;;;14.13;10.95;;;19.40;99.90;;;;;;5049245;28;20025;-80
2021/07/25 05:22:38;;;;;;;12.80;11.20;;;19.50;98.00;;;;;;5046063;28;20537;-80
2021/07/25 05:25:05;;;;;;;13.88;10.73;;;19.40;97.50;;;;;;5049674;28;20017;-80
2021/07/25 05:27:42;;;;;;;13.02;10.50;;;19.50;96.00;;;;;;5048488;28;20055;-80
2021/07/25 05:30:09;;;;;;;14.50;10.85;;;19.40;95.50;;;;;;5048866;28;20382;-81
2021/07/25 05:32:35;;;;;;;12.90;9.70;;;19.50;94.10;;;;;;5048169;28;20029;-81
2021/07/25 05:35:00;;;;;;;14.00;10.73;;;19.50;94.50;;;;;;5048400;28;20021;-80
2021/07/25 05:37:26;;;;;;;14.48;10.77;;;19.60;95.30;;;;;;5050036;28;20533;-81
2021/07/25 05:39:51;;;;;;;17.00;11.82;;;19.70;98.50;;;;;;5049929;28;20025;-81
2021/07/25 05:42:17;;;;;;;13.13;11.02;;;19.80;95.90;;;;;;5049892;28;20056;-81
2021/07/25 05:44:43;;;;;;;14.73;10.93;;;20.00;95.30;;;;;;5048613;28;20465;-81
2021/07/25 05:47:08;;;;;;;11.93;9.90;;;20.20;93.10;;;;;;5048554;28;20036;-81
2021/07/25 05:49:34;;;;;;;10.63;9.30;;;20.40;91.20;;;;;;5048558;28;20424;-82
2021/07/25 05:52:00;;;;;;;11.82;10.10;;;20.70;88.30;;;;;;5048323;28;20049;-81
2021/07/25 05:54:26;;;;;;;10.15;9.00;;;20.90;87.10;;;;;;5048906;28;20049;-81
2021/07/25 05:56:52;;;;;;;12.43;9.77;;;21.20;85.70;;;;;;5049650;28;20426;-81
2021/07/25 05:59:17;;;;;;;10.65;9.23;;;21.40;85.80;;;;;;5048536;28;20017;-82
2021/07/25 06:01:44;;;;;;;12.35;9.48;;;21.60;82.80;;;;;;5048329;28;20024;-81
2021/07/25 06:04:10;;;;;;;27.08;11.13;;;21.90;82.10;;;;;;5048337;28;20017;-81
2021/07/25 06:06:35;;;;;;;10.98;9.52;;;22.10;82.30;;;;;;5060602;28;20393;-81
2021/07/25 06:09:03;;;;;;;12.68;9.40;;;22.10;78.60;;;;;;5069491;28;20028;-82
2021/07/25 06:11:30;;;;;;;11.02;9.43;;;22.20;78.20;;;;;;5068116;28;20032;-81
2021/07/25 06:13:56;;;;;;;11.57;8.95;;;22.20;76.20;;;;;;5069438;28;20032;-81
2021/07/25 06:16:22;;;;;;;12.52;9.27;;;22.40;74.90;;;;;;5068187;27;20024;-81
2021/07/25 06:18:48;;;;;;;15.63;9.50;;;22.60;75.80;;;;;;5068065;27;20386;-80
2021/07/25 06:21:18;;;;;;;12.25;9.05;;;22.70;72.30;;;;;;5049133;28;20397;-81
2021/07/25 06:23:49;;;;;;;11.90;8.90;;;22.80;71.30;;;;;;5048085;28;20500;-81
2021/07/25 06:26:15;;;;;;;9.98;8.95;;;22.80;72.40;;;;;;5049286;27;20116;-80
2021/07/25 06:28:41;;;;;;;11.93;9.45;;;22.90;74.40;;;;;;5049326;28;20093;-81
2021/07/25 06:31:07;;;;;;;13.18;9.57;;;23.00;74.70;;;;;;5049394;28;20192;-81
2021/07/25 06:33:33;;;;;;;11.50;9.05;;;23.10;73.40;;;;;;5047889;28;20541;-81
2021/07/25 06:35:59;;;;;;;9.82;8.85;;;23.10;74.10;;;;;;5047198;28;20400;-81
2021/07/25 06:38:24;;;;;;;11.38;9.95;;;23.30;73.60;;;;;;5049217;28;20036;-81
2021/07/25 06:40:52;;;;;;;10.50;9.00;;;23.40;74.50;;;;;;5047908;28;20029;-81
2021/07/25 06:43:19;;;;;;;10.38;9.30;;;23.60;75.60;;;;;;5047844;28;20025;-81
2021/07/25 06:45:45;;;;;;;10.63;9.48;;;24.00;74.50;;;;;;5051413;28;20025;-82
2021/07/25 06:48:18;;;;;;;11.35;8.48;;;24.40;70.50;;;;;;5106602;27;20025;-81
2021/07/25 06:50:47;;;;;;;11.27;8.95;;;24.40;64.40;;;;;;5057052;28;20085;-81
2021/07/25 06:53:12;;;;;;;10.85;8.48;;;24.60;60.30;;;;;;5056545;28;20037;-82
2021/07/25 06:55:38;;;;;;;10.40;9.20;;;24.90;59.90;;;;;;5051539;28;20070;-81
2021/07/25 06:58:03;;;;;;;9.88;8.57;;;25.10;60.10;;;;;;5048213;28;20394;-81
2021/07/25 07:00:29;;;;;;;10.85;8.30;;;25.20;60.00;;;;;;5047502;28;20102;-81
2021/07/25 07:02:56;;;;;;;8.98;8.05;;;25.50;61.70;;;;;;5050861;28;20541;-81
2021/07/25 07:05:23;;;;;;;14.13;8.73;;;25.70;60.10;;;;;;5052167;28;20025;-81
2021/07/25 07:07:51;;;;;;;9.85;8.82;;;25.90;60.00;;;;;;5050698;28;20025;-81
2021/07/25 07:10:20;;;;;;;10.68;8.93;;;26.00;60.00;;;;;;5050837;28;20394;-80
2021/07/25 07:12:46;;;;;;;10.57;9.05;;;26.20;59.40;;;;;;5051637;28;20060;-81
2021/07/25 07:15:13;;;;;;;10.45;9.23;;;26.30;57.30;;;;;;5050141;28;20470;-80
2021/07/25 07:17:39;;;;;;;10.35;8.55;;;26.50;58.60;;;;;;5050536;28;20025;-80
2021/07/25 07:20:09;;;;;;;9.70;8.70;;;26.70;57.20;;;;;;5044735;28;20364;-81
2021/07/25 07:22:36;;;;;;;10.00;8.45;;;26.90;57.90;;;;;;5031898;28;20032;-80
2021/07/25 07:25:03;;;;;;;10.25;8.18;;;27.00;60.00;;;;;;5030403;28;20044;-80
2021/07/25 07:27:29;;;;;;;10.15;8.18;;;27.10;56.70;;;;;;5031989;28;20061;-80
2021/07/25 07:29:55;;;;;;;11.15;7.75;;;27.30;54.60;;;;;;5032048;28;20157;-81
2021/07/25 07:32:21;;;;;;;9.98;7.80;;;27.40;55.20;;;;;;5030619;28;20039;-82
2021/07/25 07:34:46;;;;;;;8.93;8.02;;;27.60;53.00;;;;;;5031221;28;20100;-81
2021/07/25 07:37:12;;;;;;;9.02;8.13;;;27.70;52.00;;;;;;5028220;28;20513;-81
2021/07/25 07:39:42;;;;;;;12.25;7.25;;;27.80;52.90;;;;;;5028688;28;20022;-82
2021/07/25 07:42:09;;;;;;;9.27;7.53;;;28.00;50.30;;;;;;5028651;28;20029;-82
2021/07/25 07:44:36;;;;;;;8.25;6.82;;;28.00;49.30;;;;;;5027172;28;20022;-82
2021/07/25 07:47:03;;;;;;;11.15;7.38;;;28.10;48.40;;;;;;5026179;28;20048;-82
2021/07/25 07:49:28;;;;;;;6.55;5.90;;;28.10;46.80;;;;;;5029689;28;20041;-81
2021/07/25 07:51:54;;;;;;;9.70;6.85;;;28.20;46.90;;;;;;5128875;27;20062;-81
2021/07/25 07:54:20;;;;;;;7.80;6.82;;;28.40;47.10;;;;;;5155322;27;20109;-81
2021/07/25 07:56:45;;;;;;;8.50;7.18;;;28.50;46.80;;;;;;5155007;27;20061;-82
2021/07/25 07:59:11;;;;;;;7.57;6.75;;;28.50;46.90;;;;;;5155032;27;20018;-81
2021/07/25 08:01:37;;;;;;;7.82;7.03;;;28.60;47.70;;;;;;5156409;27;20047;-81
2021/07/25 08:04:02;;;;;;;10.52;6.22;;;28.60;47.70;;;;;;5156451;27;20106;-81
2021/07/25 08:06:28;;;;;;;8.52;7.60;;;28.70;46.20;;;;;;5156455;27;20030;-81
2021/07/25 08:08:54;;;;;;;6.63;6.00;;;28.70;45.30;;;;;;5155041;27;20023;-81
2021/07/25 08:11:19;;;;;;;7.15;6.45;;;28.70;44.60;;;;;;5107463;27;20021;-81
2021/07/25 08:13:45;;;;;;;7.57;6.60;;;28.80;44.30;;;;;;5069844;28;20397;-81
2021/07/25 08:16:11;;;;;;;7.35;6.50;;;28.90;44.40;;;;;;5069985;28;20493;-81
2021/07/25 08:18:37;;;;;;;9.35;6.68;;;28.80;43.00;;;;;;5071098;28;20121;-82
2021/07/25 08:21:04;;;;;;;6.40;5.80;;;29.00;44.10;;;;;;5071125;28;20052;-81
2021/07/25 08:23:30;;;;;;;6.80;6.10;;;29.00;43.70;;;;;;5069839;27;20159;-81
2021/07/25 08:25:56;;;;;;;8.70;6.85;;;29.00;43.50;;;;;;5070968;27;20127;-81
2021/07/25 08:28:21;;;;;;;7.18;6.47;;;29.00;43.70;;;;;;5069682;27;20096;-81
2021/07/25 08:30:47;;;;;;;9.52;7.13;;;28.90;43.10;;;;;;5069704;27;20047;-81
2021/07/25 08:33:13;;;;;;;7.47;6.68;;;28.90;42.90;;;;;;5069551;28;20389;-81
2021/07/25 08:35:39;;;;;;;7.88;6.78;;;28.90;43.60;;;;;;5069631;27;20111;-81
2021/07/25 08:38:04;;;;;;;7.50;6.70;;;29.10;43.90;;;;;;5059100;28;20389;-81
2021/07/25 08:40:32;;;;;;;6.97;6.28;;;29.10;44.70;;;;;;5039963;27;20508;-79
2021/07/25 08:43:12;;;;;;;8.73;6.90;;;29.10;42.00;;;;;;5048967;27;20541;-80
2021/07/25 08:45:42;;;;;;;9.77;7.00;;;29.20;43.00;;;;;;5047448;27;20017;-80
2021/07/25 08:48:16;;;;;;;7.43;6.13;;;29.30;42.50;;;;;;5047811;27;20508;-80
2021/07/25 08:51:00;;;;;;;7.72;6.70;;;29.50;42.20;;;;;;5047314;27;20052;-80
2021/07/25 08:53:27;;;;;;;8.77;6.80;;;29.60;42.70;;;;;;5076854;27;20110;-80
2021/07/25 08:55:53;;;;;;;10.13;7.47;;;29.60;41.90;;;;;;5074289;27;20025;-81
2021/07/25 08:58:23;;;;;;;8.57;7.68;;;29.80;42.10;;;;;;5063495;27;20116;-80
2021/07/25 09:00:52;;;;;;;7.85;7.15;;;30.00;42.60;;;;;;5054232;27;20112;-80
2021/07/25 09:03:19;;;;;;;8.70;7.65;;;30.20;42.50;;;;;;5048515;27;20561;-80
2021/07/25 09:05:46;;;;;;;8.27;7.47;;;30.30;42.10;;;;;;5051151;27;20032;-80
2021/07/25 09:08:13;;;;;;;8.57;7.35;;;30.40;41.10;;;;;;5068587;27;20025;-81
2021/07/25 09:10:40;;;;;;;8.48;7.60;;;30.60;41.60;;;;;;5082553;27;20044;-82
2021/07/25 09:13:07;;;;;;;9.25;6.80;;;30.50;40.50;;;;;;5086941;27;20055;-82
2021/07/25 09:15:35;;;;;;;8.00;7.20;;;30.60;41.30;;;;;;5064171;27;20033;-84
2021/07/25 09:18:03;;;;;;;10.30;7.20;;;30.70;40.30;;;;;;5053921;27;20432;-80
2021/07/25 09:20:31;;;;;;;10.43;7.93;;;30.70;39.90;;;;;;5066087;27;20546;-81
2021/07/25 09:23:04;;;;;;;7.55;6.72;;;30.90;40.00;;;;;;5075947;27;20060;-81
2021/07/25 09:25:34;;;;;;;7.75;7.05;;;31.00;40.10;;;;;;5059703;27;20064;-81
2021/07/25 09:27:59;;;;;;;7.78;7.07;;;31.10;39.30;;;;;;5065750;27;20025;-81
2021/07/25 09:30:27;;;;;;;9.27;7.15;;;31.40;39.80;;;;;;5111365;27;20120;-80
2021/07/25 09:32:53;;;;;;;8.20;6.60;;;31.30;38.80;;;;;;5101363;27;20042;-81
2021/07/25 09:35:29;;;;;;;7.82;7.00;;;31.10;38.10;;;;;;5152105;27;20018;-82
2021/07/25 09:37:57;;;;;;;8.32;7.50;;;30.90;38.50;;;;;;5153426;27;20506;-80
2021/07/25 09:40:28;;;;;;;9.55;7.38;;;31.00;39.50;;;;;;5151257;27;20019;-81
2021/07/25 09:43:14;;;;;;;8.73;7.00;;;30.80;38.30;;;;;;5153457;27;20035;-82
2021/07/25 09:45:54;;;;;;;7.93;6.32;;;30.30;38.10;;;;;;5152788;27;20080;-81
2021/07/25 09:48:31;;;;;;;9.02;6.38;;;30.30;39.10;;;;;;5120197;27;20037;-80
2021/07/25 09:51:01;;;;;;;8.23;6.95;;;30.10;39.50;;;;;;5027183;28;20394;-80
2021/07/25 09:53:44;;;;;;;9.52;8.23;;;30.00;40.80;;;;;;5027857;28;20041;-80
2021/07/25 09:56:14;;;;;;;8.75;7.95;;;29.70;41.10;;;;;;5027448;28;20482;-80
2021/07/25 09:58:40;;;;;;;9.55;7.25;;;29.40;42.40;;;;;;5026627;27;20034;-82
2021/07/25 10:01:09;;;;;;;8.68;7.78;;;29.30;43.30;;;;;;5045107;28;20053;-82
2021/07/25 10:03:34;;;;;;;10.75;9.02;;;28.90;44.00;;;;;;5045295;27;20029;-82
2021/07/25 10:06:23;;;;;;;9.07;8.02;;;28.70;44.30;;;;;;5044950;28;20032;-81
2021/07/25 10:09:08;;;;;;;9.50;8.57;;;28.60;45.90;;;;;;5088720;27;20032;-82
2021/07/25 10:11:36;;;;;;;10.38;9.00;;;28.30;46.40;;;;;;5046493;28;20154;-82
2021/07/25 10:14:02;;;;;;;9.55;8.57;;;28.00;47.20;;;;;;5116494;28;20078;-81
2021/07/25 10:16:28;;;;;;;10.10;8.00;;;28.00;48.60;;;;;;5047305;28;20025;-81
2021/07/25 10:18:57;;;;;;;10.25;9.13;;;27.90;48.50;;;;;;5046716;28;20041;-82
2021/07/25 10:21:23;;;;;;;12.82;9.68;;;27.70;48.90;;;;;;5048207;27;20025;-80
2021/07/25 10:23:57;;;;;;;10.93;8.70;;;27.60;49.60;;;;;;5048244;28;20546;-81
2021/07/25 10:26:27;;;;;;;11.70;8.77;;;27.70;51.80;;;;;;5047462;28;20021;-81
2021/07/25 10:28:54;;;;;;;12.65;9.63;;;27.80;51.70;;;;;;5047573;28;20037;-81
2021/07/25 10:31:23;;;;;;;10.65;9.05;;;27.90;51.00;;;;;;5048448;27;20077;-81
2021/07/25 10:33:51;;;;;;;9.02;7.90;;;28.00;51.90;;;;;;5047358;28;20123;-82
2021/07/25 10:36:18;;;;;;;10.50;9.43;;;28.10;51.80;;;;;;5088982;27;20030;-82
2021/07/25 10:38:45;;;;;;;11.50;8.93;;;28.10;49.80;;;;;;5107783;27;20366;-80
2021/07/25 10:41:15;;;;;;;12.63;9.40;;;28.10;50.90;;;;;;5091920;27;20046;-82
2021/07/25 10:43:40;;;;;;;10.93;8.95;;;28.30;52.20;;;;;;5083250;27;20044;-82
2021/07/25 10:46:17;;;;;;;11.93;8.93;;;28.40;50.90;;;;;;5088294;27;20199;-81
2021/07/25 10:48:59;;;;;;;10.88;8.90;;;28.40;50.20;;;;;;5101776;27;20089;-79
2021/07/25 10:51:25;;;;;;;14.98;10.30;;;28.20;49.30;;;;;;5085166;27;20857;-80
2021/07/25 10:53:50;;;;;;;14.15;9.77;;;27.80;49.50;;;;;;5071151;27;20117;-79
2021/07/25 10:56:16;;;;;;;11.38;9.63;;;27.80;50.20;;;;;;5081731;27;20041;-82
2021/07/25 10:59:00;;;;;;;11.07;9.85;;;27.70;50.30;;;;;;5117977;27;20019;-81
2021/07/25 11:01:44;;;;;;;11.43;10.32;;;27.60;51.50;;;;;;5081519;27;20037;-81
2021/07/25 11:04:10;;;;;;;12.07;9.65;;;27.50;51.60;;;;;;5137605;27;20035;-82
2021/07/25 11:06:37;;;;;;;12.63;10.57;;;27.10;52.00;;;;;;5135121;27;20087;-81
2021/07/25 11:09:03;;;;;;;12.43;11.05;;;27.00;53.40;;;;;;5100495;27;20036;-81
2021/07/25 11:11:35;;;;;;;11.60;10.40;;;26.80;53.80;;;;;;5096475;27;20516;-81
2021/07/25 11:14:05;;;;;;;;;;;26.60;54.90;;;;;;5142456;27;20034;-81
2021/07/25 11:16:31;;;;;;;14.40;10.35;;;26.30;56.00;;;;;;5154428;27;19957;-82
2021/07/25 11:18:58;;;;;;;14.52;10.82;;;26.20;56.20;;;;;;5090035;27;20075;-82
2021/07/25 11:21:31;;;;;;;12.77;11.43;;;26.20;57.20;;;;;;5055934;27;20026;-81
2021/07/25 11:23:57;;;;;;;15.93;11.70;;;26.10;57.40;;;;;;5093149;27;20121;-84
2021/07/25 11:26:36;;;;;;;16.92;11.88;;;25.70;57.10;;;;;;5101791;27;20076;-81
2021/07/25 11:29:07;;;;;;;13.13;11.50;;;25.50;58.40;;;;;;5088580;27;20504;-82
2021/07/25 11:31:38;;;;;;;13.82;10.77;;;25.30;60.00;;;;;;5093503;27;20082;-83
2021/07/25 11:34:06;;;;;;;12.40;11.20;;;25.00;62.10;;;;;;5091821;27;20337;-82
2021/07/25 11:36:33;;;;;;;14.27;12.57;;;24.90;64.40;;;;;;5112789;27;20060;-81
2021/07/25 11:39:00;;;;;;;14.95;12.52;;;24.70;66.70;;;;;;5091642;27;20052;-82
2021/07/25 11:41:28;;;;;;;14.98;13.43;;;24.50;68.90;;;;;;5097373;27;20709;-83
2021/07/25 11:43:58;;;;;;;14.35;12.95;;;24.40;71.30;;;;;;5095366;27;20057;-85
2021/07/25 11:46:37;;;;;;;16.27;13.27;;;24.20;75.80;;;;;;5041225;27;20021;-85
2021/07/25 11:49:06;;;;;;;17.00;13.70;;;24.10;77.60;;;;;;5099736;27;20041;-84
2021/07/25 11:51:35;;;;;;;18.83;14.07;;;24.00;79.60;;;;;;5048604;27;20037;-83
2021/07/25 11:54:01;;;;;;;16.80;13.55;;;23.90;79.50;;;;;;5052338;27;20041;-84
2021/07/25 11:56:28;;;;;;;17.27;14.55;;;23.90;81.40;;;;;;5057569;27;20470;-83
2021/07/25 11:59:01;;;;;;;19.05;13.25;;;23.90;82.50;;;;;;5044840;27;20037;-84
2021/07/25 12:01:27;;;;;;;18.50;14.93;;;23.90;81.10;;;;;;5057114;27;20028;-83
2021/07/25 12:03:52;;;;;;;20.48;13.40;;;23.90;81.50;;;;;;5063663;27;20059;-83
2021/07/25 12:06:18;;;;;;;17.58;14.18;;;24.00;80.90;;;;;;5064048;27;20027;-81
2021/07/25 12:09:02;;;;;;;19.83;14.57;;;23.90;80.10;;;;;;5075296;27;20070;-81
2021/07/25 12:11:28;;;;;;;19.10;14.02;;;24.10;82.50;;;;;;5048579;28;20013;-84
2021/07/25 12:13:54;;;;;;;16.73;13.30;;;24.30;81.60;;;;;;5048892;28;20508;-84
2021/07/25 12:16:19;;;;;;;16.77;14.35;;;24.40;78.40;;;;;;5046109;27;20021;-85
2021/07/25 12:18:46;;;;;;;16.35;13.38;;;24.40;77.10;;;;;;5056091;27;20525;-82
2021/07/25 12:21:32;;;;;;;18.48;14.15;;;24.40;75.70;;;;;;5052035;27;20021;-83
2021/07/25 12:24:00;;;;;;;15.20;13.57;;;24.40;76.30;;;;;;5077920;27;20564;-83
2021/07/25 12:26:42;;;;;;;15.40;13.80;;;24.40;76.50;;;;;;5071019;27;20043;-83
2021/07/25 12:29:37;;;;;;;18.57;14.87;;;24.40;76.60;;;;;;5104459;27;20039;-83
2021/07/25 12:32:23;;;;;;;19.02;15.00;;;24.50;77.10;;;;;;5103799;27;20033;-83
2021/07/25 12:34:51;;;;;;;16.52;14.82;;;24.30;77.20;;;;;;5104975;27;20037;-84
2021/07/25 12:37:46;;;;;;;17.40;14.57;;;24.40;78.90;;;;;;5036541;28;20070;-84
2021/07/25 12:40:31;;;;;;;15.90;13.95;;;24.30;77.80;;;;;;5028399;28;20097;-84